createdAt,value
2023-01-04T00:00:04.372Z,12.60
2023-01-04T00:02:31.205Z,12.10
2023-01-04T00:04:58.944Z,12.50
2023-01-04T00:07:25.600Z,11.60
2023-01-04T00:09:52.294Z,12.00
2023-01-04T00:12:45.090Z,11.80
2023-01-04T00:15:36.130Z,12.00
2023-01-04T00:18:03.242Z,12.50
2023-01-04T00:20:30.015Z,12.00
2023-01-04T00:22:57.507Z,11.40
2023-01-04T00:25:24.673Z,11.40
2023-01-04T00:27:52.492Z,11.50
2023-01-04T00:30:19.302Z,11.70
2023-01-04T00:32:46.177Z,11.60
2023-01-04T00:35:32.916Z,12.20
2023-01-04T00:38:01.410Z,11.30
2023-01-04T00:40:28.248Z,12.30
2023-01-04T00:42:54.914Z,12.30
2023-01-04T00:45:21.583Z,12.20
2023-01-04T00:47:48.406Z,12.10
2023-01-04T00:50:15.170Z,12.40
2023-01-04T00:52:41.905Z,12.10
2023-01-04T00:55:09.031Z,12.40
2023-01-04T00:57:35.837Z,12.50
2023-01-04T01:00:02.535Z,12.10
2023-01-04T01:02:29.477Z,11.90
2023-01-04T01:04:56.428Z,12.30
2023-01-04T01:07:23.165Z,12.80
2023-01-04T01:09:49.876Z,12.70
2023-01-04T01:12:16.523Z,12.40
2023-01-04T01:14:43.179Z,12.90
2023-01-04T01:17:18.953Z,12.40
2023-01-04T01:19:45.613Z,12.90
2023-01-04T01:22:12.325Z,11.70
2023-01-04T01:24:39.371Z,12.00
2023-01-04T01:27:06.023Z,11.90
2023-01-04T01:29:32.776Z,11.80
2023-01-04T01:31:59.530Z,12.30
2023-01-04T01:34:26.333Z,13.20
2023-01-04T01:36:54.104Z,12.90
2023-01-04T01:39:20.853Z,11.60
2023-01-04T01:41:47.776Z,13.00
2023-01-04T01:44:44.135Z,13.00
2023-01-04T01:47:20.572Z,13.20
2023-01-04T01:49:49.421Z,12.30
2023-01-04T01:52:21.536Z,13.10
2023-01-04T01:55:09.337Z,11.90
2023-01-04T01:57:38.562Z,12.30
2023-01-04T02:00:09.681Z,12.70
2023-01-04T02:02:36.762Z,12.70
2023-01-04T02:05:03.691Z,12.40
2023-01-04T02:07:30.763Z,12.50
2023-01-04T02:09:58.840Z,12.80
2023-01-04T02:12:26.211Z,13.20
2023-01-04T02:14:53.012Z,12.40
2023-01-04T02:17:26.869Z,12.50
2023-01-04T02:20:23.985Z,12.80
2023-01-04T02:22:50.659Z,13.00
2023-01-04T02:25:29.351Z,13.10
2023-01-04T02:28:08.188Z,12.20
2023-01-04T02:30:44.190Z,12.30
2023-01-04T02:33:19.831Z,12.30
2023-01-04T02:36:07.263Z,12.20
2023-01-04T02:38:56.702Z,13.20
2023-01-04T02:41:49.077Z,13.60
2023-01-04T02:44:37.384Z,13.10
2023-01-04T02:47:14.301Z,12.60
2023-01-04T02:50:04.607Z,12.80
2023-01-04T02:52:32.729Z,13.50
2023-01-04T02:55:07.599Z,12.90
2023-01-04T02:57:56.989Z,12.50
2023-01-04T03:01:05.987Z,12.70
2023-01-04T03:04:16.450Z,13.30
2023-01-04T03:07:03.504Z,12.80
2023-01-04T03:09:35.431Z,12.60
2023-01-04T03:12:32.505Z,12.80
2023-01-04T03:15:05.045Z,12.70
2023-01-04T03:17:37.402Z,13.00
2023-01-04T03:20:06.795Z,13.40
2023-01-04T03:23:04.725Z,13.00
2023-01-04T03:26:00.134Z,12.80
2023-01-04T03:28:49.684Z,14.00
2023-01-04T03:31:42.377Z,13.20
2023-01-04T03:34:35.376Z,13.20
2023-01-04T03:37:28.277Z,13.60
2023-01-04T03:40:44.065Z,13.40
2023-01-04T03:43:40.883Z,13.30
2023-01-04T03:46:37.221Z,12.60
2023-01-04T03:49:15.178Z,12.90
2023-01-04T03:51:45.071Z,13.40
2023-01-04T03:54:20.255Z,13.10
2023-01-04T03:56:49.201Z,13.40
2023-01-04T03:59:16.208Z,13.60
2023-01-04T04:01:44.117Z,13.70
2023-01-04T04:04:30.352Z,13.80
2023-01-04T04:07:15.823Z,13.20
2023-01-04T04:09:42.582Z,12.90
2023-01-04T04:12:09.453Z,13.10
2023-01-04T04:14:36.187Z,13.10
2023-01-04T04:17:03.139Z,13.50
2023-01-04T04:19:30.013Z,13.10
2023-01-04T04:21:56.787Z,12.70
2023-01-04T04:24:25.975Z,13.10
2023-01-04T04:26:54.616Z,13.70
2023-01-04T04:29:22.255Z,13.70
2023-01-04T04:31:49.083Z,12.90
2023-01-04T04:34:16.029Z,13.10
2023-01-04T04:36:42.710Z,13.30
2023-01-04T04:39:09.571Z,13.10
2023-01-04T04:41:41.682Z,13.70
2023-01-04T04:44:10.042Z,14.00
2023-01-04T04:46:37.333Z,13.80
2023-01-04T04:49:05.004Z,13.30
2023-01-04T04:51:31.746Z,12.90
2023-01-04T04:53:58.394Z,13.90
2023-01-04T04:56:25.030Z,13.20
2023-01-04T04:58:51.680Z,13.60
2023-01-04T05:01:19.501Z,13.90
2023-01-04T05:03:46.448Z,13.90
2023-01-04T05:06:22.270Z,13.20
2023-01-04T05:08:49.013Z,13.80
2023-01-04T05:11:15.685Z,13.80
2023-01-04T05:13:42.669Z,13.60
2023-01-04T05:16:10.190Z,13.90
2023-01-04T05:19:25.962Z,13.20
2023-01-04T05:21:53.663Z,13.60
2023-01-04T05:24:20.280Z,13.50
2023-01-04T05:26:46.923Z,13.70
2023-01-04T05:29:33.629Z,13.10
2023-01-04T05:32:00.315Z,12.90
2023-01-04T05:34:27.059Z,13.30
2023-01-04T05:36:53.768Z,13.20
2023-01-04T05:39:20.416Z,13.40
2023-01-04T05:42:05.519Z,13.70
2023-01-04T05:44:32.194Z,13.30
2023-01-04T05:46:58.832Z,13.60
2023-01-04T05:49:26.119Z,13.50
2023-01-04T05:51:52.828Z,13.50
2023-01-04T05:54:21.802Z,13.40
2023-01-04T05:56:48.630Z,13.10
2023-01-04T05:59:16.160Z,13.60
2023-01-04T06:01:43.001Z,13.20
2023-01-04T06:04:11.890Z,13.70
2023-01-04T06:06:38.621Z,13.80
2023-01-04T06:09:05.272Z,13.50
2023-01-04T06:11:31.958Z,13.50
2023-01-04T06:13:59.699Z,13.60
2023-01-04T06:16:26.429Z,13.70
2023-01-04T06:18:53.109Z,13.40
2023-01-04T06:21:33.883Z,13.90
2023-01-04T06:24:00.615Z,13.80
2023-01-04T06:26:27.481Z,13.20
2023-01-04T06:28:54.635Z,13.20
2023-01-04T06:31:21.448Z,13.80
2023-01-04T06:33:48.214Z,13.80
2023-01-04T06:36:19.555Z,14.10
2023-01-04T06:38:47.502Z,13.50
2023-01-04T06:41:14.336Z,13.80
2023-01-04T06:43:40.992Z,13.60
2023-01-04T06:46:07.774Z,13.70
2023-01-04T06:48:34.459Z,13.80
2023-01-04T06:51:01.423Z,13.80
2023-01-04T06:53:28.231Z,13.80
2023-01-04T06:55:54.924Z,13.50
2023-01-04T07:02:03.124Z,13.60
2023-01-04T07:04:30.004Z,13.80
2023-01-04T07:06:57.831Z,14.40
2023-01-04T07:09:25.532Z,14.50
2023-01-04T07:11:52.169Z,13.80
2023-01-04T07:14:18.967Z,14.10
2023-01-04T07:16:45.764Z,13.90
2023-01-04T07:19:12.519Z,14.10
2023-01-04T07:21:40.350Z,13.90
2023-01-04T07:24:07.117Z,14.30
2023-01-04T07:26:34.648Z,14.60
2023-01-04T07:29:17.140Z,14.30
2023-01-04T07:31:49.135Z,14.20
2023-01-04T07:34:17.726Z,14.10
2023-01-04T07:36:44.506Z,13.60
2023-01-04T07:39:12.570Z,14.20
2023-01-04T07:41:40.630Z,14.80
2023-01-04T07:44:08.473Z,14.10
2023-01-04T07:46:36.318Z,14.90
2023-01-04T07:49:03.166Z,14.20
2023-01-04T07:51:31.779Z,14.70
2023-01-04T07:53:59.009Z,14.70
2023-01-04T07:56:25.707Z,14.20
2023-01-04T07:58:57.017Z,13.90
2023-01-04T08:01:25.230Z,14.00
2023-01-04T08:03:52.939Z,14.70
2023-01-04T08:06:21.401Z,14.90
2023-01-04T08:08:48.951Z,14.10
2023-01-04T08:11:18.310Z,14.70
2023-01-04T08:13:45.643Z,15.00
2023-01-04T08:16:33.651Z,14.60
2023-01-04T08:19:06.097Z,14.60
2023-01-04T08:21:35.778Z,15.10
2023-01-04T08:24:03.553Z,14.90
2023-01-04T08:26:31.034Z,13.80
2023-01-04T08:28:58.747Z,14.10
2023-01-04T08:31:28.746Z,14.30
2023-01-04T08:33:56.633Z,15.00
2023-01-04T08:36:27.718Z,14.40
2023-01-04T08:39:01.871Z,14.70
2023-01-04T08:44:18.964Z,14.90
2023-01-04T08:46:49.060Z,14.20
2023-01-04T08:49:16.445Z,15.10
2023-01-04T08:51:45.366Z,14.90
2023-01-04T08:54:13.185Z,13.80
2023-01-04T08:56:44.745Z,14.00
2023-01-04T08:59:13.099Z,14.50
2023-01-04T09:01:40.895Z,14.50
2023-01-04T09:04:08.307Z,14.50
2023-01-04T09:06:38.124Z,14.20
2023-01-04T09:09:05.113Z,14.70
2023-01-04T09:11:31.777Z,14.70
2023-01-04T09:14:07.324Z,13.90
2023-01-04T09:16:35.838Z,14.90
2023-01-04T09:19:02.850Z,14.70
2023-01-04T09:21:30.656Z,14.30
2023-01-04T09:23:58.742Z,14.50
2023-01-04T09:26:25.837Z,14.70
2023-01-04T09:28:54.312Z,14.70
2023-01-04T09:31:23.632Z,14.60
2023-01-04T09:36:37.568Z,14.80
2023-01-04T09:39:04.555Z,14.50
2023-01-04T09:41:37.975Z,14.60
2023-01-04T09:44:10.512Z,14.30
2023-01-04T09:46:49.019Z,14.50
2023-01-04T09:49:50.460Z,14.60
2023-01-04T09:52:21.785Z,14.50
2023-01-04T09:55:37.295Z,14.60
2023-01-04T09:57:58.431Z,14.70
2023-01-04T10:00:30.499Z,15.00
2023-01-04T10:03:11.306Z,14.30
2023-01-04T10:05:40.238Z,14.80
2023-01-04T10:08:15.642Z,14.70
2023-01-04T10:10:49.586Z,15.10
2023-01-04T10:13:54.182Z,14.70
2023-01-04T10:23:02.739Z,15.00
2023-01-04T10:25:48.389Z,14.70
2023-01-04T10:28:50.801Z,14.40
2023-01-04T10:31:39.858Z,14.20
2023-01-04T10:34:18.969Z,14.40
2023-01-04T10:36:48.239Z,14.00
2023-01-04T10:39:22.593Z,14.10
2023-01-04T10:42:00.022Z,14.80
2023-01-04T10:44:41.940Z,14.10
2023-01-04T10:47:17.504Z,14.60
2023-01-04T10:49:49.705Z,14.40
2023-01-04T10:52:36.508Z,14.60
2023-01-04T10:55:22.243Z,14.30
2023-01-04T10:58:01.786Z,15.10
2023-01-04T11:00:39.484Z,15.10
2023-01-04T11:03:16.317Z,15.10
2023-01-04T11:05:46.148Z,14.70
2023-01-04T11:08:35.083Z,14.50
2023-01-04T11:11:15.306Z,14.80
2023-01-04T11:13:42.164Z,14.60
2023-01-04T11:16:09.050Z,15.60
2023-01-04T11:18:40.500Z,14.90
2023-01-04T11:21:12.457Z,14.60
2023-01-04T11:23:39.441Z,14.70
2023-01-04T11:26:17.653Z,15.20
2023-01-04T11:29:06.931Z,14.90
2023-01-04T11:31:54.561Z,14.80
2023-01-04T11:34:45.096Z,15.10
2023-01-04T11:37:40.904Z,15.10
2023-01-04T11:40:23.239Z,15.30
2023-01-04T11:42:52.999Z,15.10
2023-01-04T11:45:26.115Z,14.70
2023-01-04T11:47:58.392Z,14.90
2023-01-04T11:50:46.250Z,14.90
2023-01-04T11:53:34.247Z,15.50
2023-01-04T11:56:22.174Z,15.10
2023-01-04T11:59:25.241Z,15.00
2023-01-04T12:02:58.658Z,14.60
2023-01-04T12:05:28.965Z,14.70
2023-01-04T12:07:57.288Z,14.90
2023-01-04T12:10:27.104Z,15.00
2023-01-04T12:12:55.777Z,15.40
2023-01-04T12:15:47.906Z,14.70
2023-01-04T12:18:29.301Z,15.00
2023-01-04T12:21:01.041Z,15.50
2023-01-04T12:23:28.349Z,15.20
2023-01-04T12:25:56.735Z,15.20
2023-01-04T12:29:12.784Z,15.50
2023-01-04T12:31:39.434Z,14.90
2023-01-04T12:34:30.158Z,15.30
2023-01-04T12:37:05.326Z,15.50
2023-01-04T12:39:47.039Z,15.60
2023-01-04T12:42:24.444Z,15.50
2023-01-04T12:44:52.162Z,14.90
2023-01-04T12:47:37.696Z,15.50
2023-01-04T12:50:18.212Z,15.00
2023-01-04T12:55:31.435Z,15.30
2023-01-04T12:57:59.428Z,15.10
2023-01-04T13:00:50.912Z,15.50
2023-01-04T13:03:18.303Z,15.80
2023-01-04T13:05:56.944Z,15.60
2023-01-04T13:08:25.061Z,14.90
2023-01-04T13:10:56.345Z,14.70
2023-01-04T13:13:55.659Z,15.30
2023-01-04T13:16:41.179Z,15.10
2023-01-04T13:19:23.692Z,14.80
2023-01-04T13:21:52.483Z,15.40
2023-01-04T13:24:32.911Z,14.80
2023-01-04T13:27:07.012Z,15.50
2023-01-04T13:29:35.901Z,15.30
2023-01-04T13:32:05.663Z,15.50
2023-01-04T13:34:55.369Z,15.80
2023-01-04T13:37:56.999Z,15.20
2023-01-04T13:40:26.956Z,15.80
2023-01-04T13:43:15.337Z,15.90
2023-01-04T13:46:23.861Z,15.50
2023-01-04T13:48:54.195Z,15.40
2023-01-04T13:51:29.065Z,15.10
2023-01-04T13:54:00.709Z,14.80
2023-01-04T13:56:30.267Z,15.40
2023-01-04T13:58:57.235Z,15.10
2023-01-04T14:01:30.322Z,15.10
2023-01-04T14:03:58.557Z,15.30
2023-01-04T14:06:41.379Z,15.30
2023-01-04T14:09:10.884Z,14.50
2023-01-04T14:12:08.051Z,14.40
2023-01-04T14:14:44.040Z,15.20
2023-01-04T14:17:15.999Z,15.10
2023-01-04T14:20:20.881Z,14.90
2023-01-04T14:22:47.534Z,15.20
2023-01-04T14:25:43.955Z,15.20
2023-01-04T14:28:27.475Z,15.10
2023-01-04T14:31:00.315Z,15.40
2023-01-04T14:33:53.709Z,14.70
2023-01-04T14:36:31.056Z,15.00
2023-01-04T14:39:20.900Z,14.90
2023-01-04T14:41:51.555Z,15.10
2023-01-04T14:44:24.223Z,15.20
2023-01-04T14:46:59.453Z,14.80
2023-01-04T14:49:28.495Z,15.20
2023-01-04T14:51:59.925Z,15.10
2023-01-04T14:54:31.881Z,14.60
2023-01-04T14:57:00.826Z,15.10
2023-01-04T14:59:38.542Z,15.10
2023-01-04T15:02:23.717Z,14.70
2023-01-04T15:04:50.563Z,15.60
2023-01-04T15:07:39.620Z,14.30
2023-01-04T15:10:21.016Z,14.80
2023-01-04T15:12:47.740Z,15.40
2023-01-04T15:15:14.534Z,15.30
2023-01-04T15:17:41.251Z,15.20
2023-01-04T15:20:09.965Z,15.00
2023-01-04T15:22:36.821Z,15.20
2023-01-04T15:25:04.137Z,14.70
2023-01-04T15:27:32.716Z,15.30
2023-01-04T15:30:04.461Z,15.10
2023-01-04T15:32:35.560Z,15.10
2023-01-04T15:35:02.376Z,15.10
2023-01-04T15:37:29.087Z,15.40
2023-01-04T15:40:01.844Z,15.40
2023-01-04T15:42:48.655Z,15.30
2023-01-04T15:45:15.717Z,15.00
2023-01-04T15:47:42.537Z,15.10
2023-01-04T15:50:09.645Z,14.70
2023-01-04T15:52:36.371Z,15.00
2023-01-04T15:55:03.332Z,15.00
2023-01-04T15:57:34.554Z,15.00
2023-01-04T16:00:05.422Z,14.40
2023-01-04T16:02:32.545Z,14.80
2023-01-04T16:04:59.288Z,14.20
2023-01-04T16:07:29.738Z,14.60
2023-01-04T16:09:59.425Z,14.50
2023-01-04T16:12:45.417Z,15.00
2023-01-04T16:15:18.928Z,15.00
2023-01-04T16:17:46.512Z,14.80
2023-01-04T16:20:15.561Z,14.80
2023-01-04T16:22:42.430Z,14.70
2023-01-04T16:25:11.276Z,14.70
2023-01-04T16:27:39.480Z,14.90
2023-01-04T16:30:10.603Z,14.60
2023-01-04T16:32:40.449Z,15.20
2023-01-04T16:35:29.171Z,14.40
2023-01-04T16:38:03.271Z,15.20
2023-01-04T16:40:30.776Z,15.20
2023-01-04T16:42:57.420Z,15.40
2023-01-04T16:45:24.063Z,15.00
2023-01-04T16:47:51.329Z,15.10
2023-01-04T16:50:18.056Z,14.50
2023-01-04T16:52:44.809Z,14.80
2023-01-04T16:55:11.569Z,14.90
2023-01-04T16:57:38.344Z,15.40
2023-01-04T17:00:06.032Z,15.20
2023-01-04T17:02:32.927Z,15.70
2023-01-04T17:05:01.023Z,14.60
2023-01-04T17:07:32.520Z,15.10
2023-01-04T17:10:02.519Z,14.50
2023-01-04T17:12:46.977Z,14.20
2023-01-04T17:15:41.878Z,13.50
2023-01-04T17:18:02.040Z,13.70
2023-01-04T17:20:28.722Z,13.40
2023-01-04T17:22:55.421Z,13.30
2023-01-04T17:25:23.619Z,13.50
2023-01-04T17:27:50.353Z,13.40
2023-01-04T17:30:17.050Z,13.30
2023-01-04T17:32:43.738Z,13.30
2023-01-04T17:35:12.701Z,13.00
2023-01-04T17:37:40.535Z,13.20
2023-01-04T17:40:07.623Z,13.40
2023-01-04T17:42:34.356Z,13.00
2023-01-04T17:45:01.326Z,14.20
2023-01-04T17:47:28.222Z,14.10
2023-01-04T17:49:54.875Z,14.40
2023-01-04T17:52:29.012Z,15.00
2023-01-04T17:54:57.314Z,14.60
2023-01-04T17:57:23.940Z,14.30
2023-01-04T17:59:50.628Z,14.60
2023-01-04T18:02:17.487Z,14.30
2023-01-04T18:04:44.203Z,14.00
2023-01-04T18:09:38.432Z,14.20
2023-01-04T18:12:05.331Z,14.50
2023-01-04T18:14:34.179Z,14.90
2023-01-04T18:17:00.936Z,14.40
2023-01-04T18:19:30.075Z,15.10
2023-01-04T18:21:57.405Z,14.90
2023-01-04T18:24:39.872Z,14.90
2023-01-04T18:27:26.144Z,15.40
2023-01-04T18:29:55.015Z,14.60
2023-01-04T18:32:38.821Z,14.80
2023-01-04T18:35:06.377Z,14.70
2023-01-04T18:37:33.956Z,14.50
2023-01-04T18:40:01.233Z,15.20
2023-01-04T18:42:30.622Z,14.90
2023-01-04T18:44:57.544Z,14.90
2023-01-04T18:47:24.335Z,15.50
2023-01-04T18:49:51.076Z,15.10
2023-01-04T18:52:18.950Z,14.70
2023-01-04T18:54:47.856Z,15.10
2023-01-04T18:57:14.853Z,15.30
2023-01-04T18:59:41.667Z,14.50
2023-01-04T19:02:15.268Z,14.60
2023-01-04T19:04:42.099Z,14.70
2023-01-04T19:07:08.786Z,14.20
2023-01-04T19:09:35.469Z,14.30
2023-01-04T19:12:02.159Z,13.90
2023-01-04T19:14:29.899Z,14.30
2023-01-04T19:16:56.732Z,14.40
2023-01-04T19:19:23.468Z,14.30
2023-01-04T19:21:50.249Z,14.10
2023-01-04T19:24:17.031Z,14.40
2023-01-04T19:26:44.114Z,14.30
2023-01-04T19:29:12.171Z,14.00
2023-01-04T19:31:38.912Z,14.40
2023-01-04T19:34:05.638Z,14.30
2023-01-04T19:36:32.278Z,14.10
2023-01-04T19:38:59.022Z,13.90
2023-01-04T19:41:33.494Z,14.10
2023-01-04T19:44:11.001Z,14.50
2023-01-04T19:46:39.683Z,14.30
2023-01-04T19:49:14.541Z,14.40
2023-01-04T19:51:45.226Z,14.10
2023-01-04T19:54:12.231Z,13.90
2023-01-04T19:56:39.824Z,14.10
2023-01-04T19:59:06.885Z,13.90
2023-01-04T20:01:33.723Z,13.60
2023-01-04T20:04:00.610Z,13.80
2023-01-04T20:06:27.479Z,14.00
2023-01-04T20:08:54.182Z,13.70
2023-01-04T20:11:20.928Z,13.80
2023-01-04T20:13:47.635Z,14.30
2023-01-04T20:16:14.313Z,14.20
2023-01-04T20:18:41.024Z,14.60
2023-01-04T20:21:12.772Z,14.90
2023-01-04T20:23:40.485Z,14.30
2023-01-04T20:26:12.005Z,14.50
2023-01-04T20:29:29.782Z,14.10
2023-01-04T20:31:56.481Z,14.50
2023-01-04T20:34:23.223Z,14.40
2023-01-04T20:36:50.030Z,14.90
2023-01-04T20:39:16.696Z,14.60
2023-01-04T20:42:03.349Z,14.20
2023-01-04T20:44:30.030Z,14.70
2023-01-04T20:46:56.762Z,14.50
2023-01-04T20:49:23.945Z,14.80
2023-01-04T20:51:50.873Z,14.30
2023-01-04T20:54:17.620Z,14.80
2023-01-04T20:56:44.363Z,14.20
2023-01-04T20:59:11.008Z,14.20
2023-01-04T21:01:38.012Z,14.40
2023-01-04T21:04:05.046Z,14.50
2023-01-04T21:06:33.314Z,14.50
2023-01-04T21:09:00.005Z,14.50
2023-01-04T21:11:29.142Z,14.30
2023-01-04T21:13:55.891Z,14.40
2023-01-04T21:16:22.596Z,14.40
2023-01-04T21:18:49.349Z,14.30
2023-01-04T21:21:17.859Z,14.50
2023-01-04T21:23:45.665Z,14.40
2023-01-04T21:26:18.161Z,14.10
2023-01-04T21:28:46.925Z,14.10
2023-01-04T21:31:22.460Z,13.50
2023-01-04T21:33:50.268Z,13.50
2023-01-04T21:36:20.576Z,13.90
2023-01-04T21:38:51.916Z,14.20
2023-01-04T21:41:47.732Z,14.20
2023-01-04T21:44:14.813Z,13.70
2023-01-04T21:46:41.593Z,14.40
2023-01-04T21:49:09.446Z,13.90
2023-01-04T21:51:36.174Z,14.30
2023-01-04T21:54:02.891Z,14.20
2023-01-04T21:56:31.546Z,14.20
2023-01-04T21:58:58.246Z,14.30
2023-01-04T22:01:34.092Z,14.30
2023-01-04T22:04:01.793Z,14.30
2023-01-04T22:06:29.233Z,14.10
2023-01-04T22:08:55.970Z,14.30
2023-01-04T22:11:22.705Z,14.10
2023-01-04T22:13:50.600Z,13.90
2023-01-04T22:16:18.159Z,14.10
2023-01-04T22:18:48.488Z,13.90
2023-01-04T22:21:17.310Z,14.10
2023-01-04T22:23:44.159Z,14.30
2023-01-04T22:26:11.244Z,14.10
2023-01-04T22:28:38.817Z,13.80
2023-01-04T22:31:11.062Z,14.50
2023-01-04T22:33:38.830Z,14.30
2023-01-04T22:36:21.650Z,13.80
2023-01-04T22:38:50.433Z,14.70
2023-01-04T22:41:19.024Z,14.00
2023-01-04T22:43:46.828Z,13.70
2023-01-04T22:46:17.921Z,14.00
2023-01-04T22:48:45.548Z,14.00
2023-01-04T22:51:14.962Z,13.80
2023-01-04T22:53:41.927Z,14.10
2023-01-04T22:56:19.660Z,13.80
2023-01-04T22:58:52.441Z,13.90
2023-01-04T23:01:20.880Z,13.70
2023-01-04T23:03:48.509Z,14.00
2023-01-04T23:06:15.571Z,13.90
2023-01-04T23:08:42.353Z,14.00
2023-01-04T23:11:17.877Z,14.20
2023-01-04T23:13:45.191Z,14.00
2023-01-04T23:16:16.107Z,13.90
2023-01-04T23:18:43.346Z,13.70
2023-01-04T23:21:11.051Z,13.80
2023-01-04T23:23:38.115Z,13.80
2023-01-04T23:26:07.162Z,13.60
2023-01-04T23:28:36.924Z,13.60
2023-01-04T23:31:06.004Z,13.80
2023-01-04T23:33:36.277Z,13.60
2023-01-04T23:36:15.935Z,14.00
2023-01-04T23:38:44.233Z,14.00
2023-01-04T23:41:11.866Z,14.20
2023-01-04T23:43:39.337Z,14.10
2023-01-04T23:46:17.283Z,13.50
2023-01-04T23:48:44.757Z,14.10
2023-01-04T23:51:14.981Z,14.20
2023-01-04T23:53:41.734Z,13.60
2023-01-04T23:56:14.803Z,13.50
2023-01-04T23:58:41.709Z,13.90
